Time;durP1;ratioP1;P1;durP2;ratioP2;P2;SDS_P1;SDS_P2;PMS_P1;PMS_P2;Temp;Humidity;BMP_temperature;BMP_pressure;BME280_temperature;BME280_humidity;BME280_pressure;Samples;Min_cycle;Max_cycle;Signal;HPM_P1;HPM_P2
2023/07/28 00:02:36;;;;;;;;;;;;;;;22.03;41.59;100032.25;5382329;32;34596;-84
2023/07/28 00:05:38;;;;;;;;;;;;;;;22.08;41.54;100027.28;5385635;32;34669;-84
2023/07/28 00:08:40;;;;;;;;;;;;;;;21.98;41.85;100028.31;5383204;32;34752;-84
2023/07/28 00:11:42;;;;;;;;;;;;;;;22.06;41.75;100028.44;5387301;32;34794;-84
2023/07/28 00:14:44;;;;;;;;;;;;;;;22.10;41.74;100027.22;5381724;32;35081;-84
2023/07/28 00:17:46;;;;;;;;;;;;;;;21.74;42.48;100020.69;5388044;32;35618;-84
2023/07/28 00:20:48;;;;;;;;;;;;;;;21.55;43.29;100029.56;5380498;32;34832;-85
2023/07/28 00:23:50;;;;;;;;;;;;;;;21.87;42.47;100021.25;5390870;32;34968;-84
2023/07/28 00:26:52;;;;;;;;;;;;;;;22.35;41.54;100015.06;5399464;32;34718;-84
2023/07/28 00:29:54;;;;;;;;;;;;;;;22.28;41.63;100013.91;5393541;32;34953;-85
2023/07/28 00:32:56;;;;;;;;;;;;;;;22.30;41.66;100015.47;5388628;32;34502;-85
2023/07/28 00:35:58;;;;;;;;;;;;;;;22.17;41.87;100017.63;5389760;32;34896;-84
2023/07/28 00:39:00;;;;;;;;;;;;;;;22.06;42.19;100018.56;5390678;32;34595;-84
2023/07/28 00:42:02;;;;;;;;;;;;;;;22.23;41.92;100018.88;5386654;32;34978;-84
2023/07/28 00:45:04;;;;;;;;;;;;;;;22.09;42.26;100010.31;5387854;32;35135;-85
2023/07/28 00:48:08;;;;;;;;;;;;;;;22.13;42.30;100011.69;5393220;32;34903;-85
2023/07/28 00:51:10;;;;;;;;;;;;;;;22.04;42.61;100004.50;5388035;32;36367;-85
2023/07/28 00:54:12;;;;;;;;;;;;;;;21.63;43.80;100008.28;5392292;32;35998;-83
2023/07/28 00:57:14;;;;;;;;;;;;;;;21.89;43.16;100005.91;5386694;32;36193;-84
2023/07/28 01:00:16;;;;;;;;;;;;;;;21.80;43.62;100006.75;5393977;32;35256;-84
2023/07/28 01:03:18;;;;;;;;;;;;;;;21.78;43.81;100006.06;5384743;32;34406;-84
2023/07/28 01:06:24;;;;;;;;;;;;;;;21.60;44.48;100009.44;5388710;32;35070;-85
2023/07/28 01:09:28;;;;;;;;;;;;;;;21.61;44.58;100002.25;5388836;32;34615;-84
2023/07/28 01:12:30;;;;;;;;;;;;;;;21.52;44.97;100003.09;5383860;32;36035;-84
2023/07/28 01:15:32;;;;;;;;;;;;;;;21.17;45.90;99998.22;5396621;32;35300;-85
2023/07/28 01:18:34;;;;;;;;;;;;;;;20.70;47.50;100005.94;5387805;32;34933;-85
2023/07/28 01:21:36;;;;;;;;;;;;;;;21.21;46.41;99999.63;5391147;32;35550;-85
2023/07/28 01:24:42;;;;;;;;;;;;;;;21.69;45.42;100001.53;5387042;32;34825;-84
2023/07/28 01:27:44;;;;;;;;;;;;;;;21.95;44.72;100000.00;5389908;32;34880;-85
2023/07/28 01:30:46;;;;;;;;;;;;;;;21.49;46.13;100001.53;5386285;32;34942;-84
2023/07/28 01:33:48;;;;;;;;;;;;;;;21.41;46.39;99995.22;5382522;32;34626;-85
2023/07/28 01:36:50;;;;;;;;;;;;;;;21.86;45.38;99990.16;5397790;32;33771;-85
2023/07/28 01:39:52;;;;;;;;;;;;;;;21.71;45.71;99991.56;5388514;32;35396;-83
2023/07/28 01:42:54;;;;;;;;;;;;;;;21.75;45.85;99988.47;5392923;32;36928;-85
2023/07/28 01:45:56;;;;;;;;;;;;;;;22.14;44.81;99997.31;5388531;32;35216;-85
2023/07/28 01:48:58;;;;;;;;;;;;;;;21.56;46.25;99996.47;5386194;32;34551;-84
2023/07/28 01:52:00;;;;;;;;;;;;;;;21.57;46.33;99996.31;5386849;32;35866;-85
2023/07/28 01:55:02;;;;;;;;;;;;;;;21.48;46.41;99986.47;5390605;32;35121;-84
2023/07/28 01:58:04;;;;;;;;;;;;;;;21.85;45.47;99993.81;5393382;32;35027;-83
2023/07/28 02:01:06;;;;;;;;;;;;;;;21.78;45.72;99992.69;5387504;32;33995;-84
2023/07/28 02:04:08;;;;;;;;;;;;;;;21.06;47.20;99997.38;5390203;32;35175;-84
2023/07/28 02:07:10;;;;;;;;;;;;;;;21.45;46.44;99989.44;5389174;32;35035;-85
2023/07/28 02:10:12;;;;;;;;;;;;;;;21.81;45.26;99992.41;5387892;32;35127;-85
2023/07/28 02:13:14;;;;;;;;;;;;;;;20.81;47.99;99992.50;5389593;32;34925;-85
2023/07/28 02:16:17;;;;;;;;;;;;;;;21.33;46.81;99998.56;5385992;32;34557;-85
2023/07/28 02:19:19;;;;;;;;;;;;;;;20.77;48.26;99991.91;5385608;32;35289;-84
2023/07/28 02:22:21;;;;;;;;;;;;;;;20.77;48.34;99988.41;5388336;32;34698;-85
2023/07/28 02:25:23;;;;;;;;;;;;;;;20.94;48.30;99990.44;5388651;32;35292;-83
2023/07/28 02:28:25;;;;;;;;;;;;;;;20.79;48.43;99983.75;5382026;32;35001;-84
2023/07/28 02:31:27;;;;;;;;;;;;;;;20.52;49.02;99981.69;5385622;32;35014;-84
2023/07/28 02:34:29;;;;;;;;;;;;;;;20.97;48.17;99987.47;5392762;32;35346;-83
2023/07/28 02:37:30;;;;;;;;;;;;;;;20.80;48.79;99988.09;5380071;32;35124;-85
2023/07/28 02:40:33;;;;;;;;;;;;;;;20.77;48.76;99985.72;5383648;32;34925;-84
2023/07/28 02:43:35;;;;;;;;;;;;;;;21.09;48.04;99978.37;5389489;32;36147;-84
2023/07/28 02:46:37;;;;;;;;;;;;;;;21.20;47.94;99981.91;5389487;32;35150;-84
2023/07/28 02:49:40;;;;;;;;;;;;;;;20.29;50.49;99981.81;5386304;32;34770;-83
2023/07/28 02:52:42;;;;;;;;;;;;;;;19.96;52.02;99974.84;5391240;32;36535;-84
2023/07/28 02:55:44;;;;;;;;;;;;;;;19.83;52.40;99973.34;5390940;32;35215;-85
2023/07/28 02:58:46;;;;;;;;;;;;;;;20.13;51.58;99983.25;5379366;32;34860;-85
2023/07/28 03:01:51;;;;;;;;;;;;;;;20.10;51.91;99980.88;5391492;32;34732;-84
2023/07/28 03:04:54;;;;;;;;;;;;;;;20.44;50.98;99990.31;5383397;32;35492;-84
2023/07/28 03:07:56;;;;;;;;;;;;;;;20.53;50.21;99978.03;5395286;32;37894;-85
2023/07/28 03:10:58;;;;;;;;;;;;;;;20.01;51.90;99977.13;5384303;32;35001;-84
2023/07/28 03:14:00;;;;;;;;;;;;;;;19.88;52.86;99988.00;5385132;32;34876;-83
2023/07/28 03:17:02;;;;;;;;;;;;;;;20.46;50.97;99980.38;5388658;32;35319;-84
2023/07/28 03:20:04;;;;;;;;;;;;;;;20.38;51.02;99964.16;5398583;32;34329;-83
2023/07/28 03:23:06;;;;;;;;;;;;;;;20.67;50.17;99979.50;5387497;32;34578;-84
2023/07/28 03:26:08;;;;;;;;;;;;;;;21.18;48.58;99975.84;5382855;32;35729;-84
2023/07/28 03:29:10;;;;;;;;;;;;;;;20.68;49.03;99976.72;5399034;32;35339;-83
2023/07/28 03:32:12;;;;;;;;;;;;;;;20.17;50.74;99977.53;5381214;32;34586;-83
2023/07/28 03:35:14;;;;;;;;;;;;;;;20.28;50.46;99960.59;5380032;32;34927;-84
2023/07/28 03:38:18;;;;;;;;;;;;;;;21.10;47.97;99950.66;5388164;32;35070;-83
2023/07/28 03:41:20;;;;;;;;;;;;;;;20.86;48.81;99955.53;5387039;32;35238;-84
2023/07/28 03:44:22;;;;;;;;;;;;;;;20.30;50.13;99969.31;5389684;32;34764;-84
2023/07/28 03:47:24;;;;;;;;;;;;;;;20.44;50.07;99974.31;5383598;32;35355;-84
2023/07/28 03:50:27;;;;;;;;;;;;;;;20.10;51.09;99979.03;5389870;32;34867;-85
2023/07/28 03:53:29;;;;;;;;;;;;;;;20.23;50.84;99978.84;5389339;32;34347;-85
2023/07/28 03:56:31;;;;;;;;;;;;;;;20.45;50.22;99973.34;5387378;32;35961;-84
2023/07/28 03:59:34;;;;;;;;;;;;;;;20.43;49.90;99966.44;5394829;32;34194;-84
2023/07/28 04:02:36;;;;;;;;;;;;;;;20.88;48.58;99974.94;5387334;32;34786;-84
2023/07/28 04:05:38;;;;;;;;;;;;;;;20.37;49.92;99967.81;5393976;32;34666;-85
2023/07/28 04:08:40;;;;;;;;;;;;;;;20.64;49.17;99971.75;5391358;32;34675;-83
2023/07/28 04:11:42;;;;;;;;;;;;;;;20.01;51.10;99982.47;5406570;32;35529;-84
2023/07/28 04:14:44;;;;;;;;;;;;;;;20.16;51.29;99993.69;5391890;32;34621;-85
2023/07/28 04:17:46;;;;;;;;;;;;;;;20.48;49.60;99997.12;5390336;32;33980;-85
2023/07/28 04:20:48;;;;;;;;;;;;;;;20.62;49.52;99990.59;5391480;32;34143;-86
2023/07/28 04:23:50;;;;;;;;;;;;;;;21.00;48.08;99992.56;5402764;32;34352;-85
2023/07/28 04:26:52;;;;;;;;;;;;;;;21.31;47.27;99993.34;5399725;32;35388;-85
2023/07/28 04:29:54;;;;;;;;;;;;;;;21.95;45.30;99975.06;5389059;32;35366;-85
2023/07/28 04:32:56;;;;;;;;;;;;;;;21.45;46.55;99985.94;5400248;32;34855;-85
2023/07/28 04:35:58;;;;;;;;;;;;;;;21.63;45.47;99984.22;5393021;32;35140;-85
2023/07/28 04:39:00;;;;;;;;;;;;;;;21.96;44.35;99982.97;5390067;32;35606;-85
2023/07/28 04:42:02;;;;;;;;;;;;;;;22.07;43.83;99988.16;5389296;32;34496;-86
2023/07/28 04:45:05;;;;;;;;;;;;;;;21.59;44.65;99989.03;5390803;32;34390;-86
2023/07/28 04:48:07;;;;;;;;;;;;;;;21.32;45.41;99984.38;5407048;32;34880;-84
2023/07/28 04:51:09;;;;;;;;;;;;;;;20.99;46.68;99968.63;5404717;32;34709;-85
2023/07/28 04:54:11;;;;;;;;;;;;;;;21.49;45.24;99965.94;5416874;32;34595;-84
2023/07/28 04:57:13;;;;;;;;;;;;;;;21.63;44.70;99961.00;5404433;32;34276;-84
2023/07/28 05:00:17;;;;;;;;;;;;;;;21.12;46.06;99955.03;5408012;32;35128;-84
2023/07/28 05:03:19;;;;;;;;;;;;;;;21.93;44.30;99951.12;5410955;32;35120;-84
2023/07/28 05:06:21;;;;;;;;;;;;;;;21.65;44.90;99960.88;5406115;32;34689;-86
2023/07/28 05:09:23;;;;;;;;;;;;;;;20.86;46.83;99963.53;5399530;32;34930;-85
2023/07/28 05:12:25;;;;;;;;;;;;;;;21.02;46.75;99971.03;5387684;32;34612;-86
2023/07/28 05:15:27;;;;;;;;;;;;;;;22.10;44.27;99973.69;5394685;32;34745;-87
2023/07/28 05:18:29;;;;;;;;;;;;;;;22.48;43.31;99967.38;5397468;32;34233;-84
2023/07/28 05:21:31;;;;;;;;;;;;;;;22.14;43.75;99970.56;5387927;32;35461;-85
2023/07/28 05:24:33;;;;;;;;;;;;;;;21.87;44.68;99965.09;5393706;32;34968;-86
2023/07/28 05:27:35;;;;;;;;;;;;;;;22.87;42.30;99954.69;5395593;32;35528;-86
2023/07/28 05:30:37;;;;;;;;;;;;;;;23.07;42.32;99951.91;5390055;32;34828;-86
2023/07/28 05:33:39;;;;;;;;;;;;;;;22.53;43.36;99951.69;5397202;32;35794;-85
2023/07/28 05:36:42;;;;;;;;;;;;;;;24.00;39.83;99954.13;5402607;32;34470;-85
2023/07/28 05:39:45;;;;;;;;;;;;;;;23.64;40.64;99972.13;5404269;32;34895;-84
2023/07/28 05:42:46;;;;;;;;;;;;;;;23.47;40.69;99972.91;5411585;32;34895;-83
2023/07/28 05:45:48;;;;;;;;;;;;;;;23.17;41.52;99966.06;5413367;32;35210;-84
2023/07/28 05:48:50;;;;;;;;;;;;;;;22.89;42.39;99982.16;5407704;32;34932;-85
2023/07/28 05:51:52;;;;;;;;;;;;;;;22.24;43.75;99980.41;5407092;32;34175;-86
2023/07/28 05:54:54;;;;;;;;;;;;;;;22.06;44.76;99989.12;5415137;32;34826;-85
2023/07/28 05:57:57;;;;;;;;;;;;;;;22.25;44.58;99998.16;5402295;32;34546;-85
2023/07/28 06:00:59;;;;;;;;;;;;;;;21.95;45.25;100007.16;5408877;32;34936;-84
2023/07/28 06:04:01;;;;;;;;;;;;;;;22.34;45.03;99994.59;5398010;32;33345;-86
2023/07/28 06:07:03;;;;;;;;;;;;;;;22.76;43.69;100002.22;5392507;32;34827;-85
2023/07/28 06:10:05;;;;;;;;;;;;;;;22.80;43.83;99999.13;5413481;32;34885;-83
2023/07/28 06:13:07;;;;;;;;;;;;;;;23.17;42.81;100003.59;5396689;32;35261;-85
2023/07/28 06:16:09;;;;;;;;;;;;;;;23.23;42.52;100003.00;5400232;32;35452;-86
2023/07/28 06:19:12;;;;;;;;;;;;;;;22.88;42.98;99998.41;5388170;32;34149;-85
2023/07/28 06:22:14;;;;;;;;;;;;;;;22.11;44.98;100002.97;5390438;32;34651;-86
2023/07/28 06:25:16;;;;;;;;;;;;;;;23.31;42.55;100011.13;5393145;32;34309;-85
2023/07/28 06:28:18;;;;;;;;;;;;;;;23.86;41.10;100000.31;5408360;32;35853;-85
2023/07/28 06:31:21;;;;;;;;;;;;;;;22.94;42.62;100001.34;5404748;32;34221;-84
2023/07/28 06:34:23;;;;;;;;;;;;;;;22.80;43.30;99995.56;5397587;32;34768;-85
2023/07/28 06:37:25;;;;;;;;;;;;;;;24.41;39.88;99994.72;5391810;32;34604;-85
2023/07/28 06:40:27;;;;;;;;;;;;;;;24.51;40.00;99999.97;5400319;32;34693;-86
2023/07/28 06:43:29;;;;;;;;;;;;;;;25.03;39.45;100005.25;5393795;32;35183;-84
2023/07/28 06:46:31;;;;;;;;;;;;;;;24.87;38.64;99999.84;5391284;32;34795;-84
2023/07/28 06:49:33;;;;;;;;;;;;;;;25.78;37.05;99994.56;5396154;32;35077;-86
2023/07/28 06:52:35;;;;;;;;;;;;;;;25.45;37.75;99999.03;5393542;32;34947;-87
2023/07/28 06:55:38;;;;;;;;;;;;;;;25.62;36.92;99990.81;5392809;32;35043;-87
2023/07/28 06:58:41;;;;;;;;;;;;;;;24.95;37.98;99987.25;5399115;32;35722;-86
2023/07/28 07:01:43;;;;;;;;;;;;;;;24.47;38.65;99990.53;5398301;32;35639;-87
2023/07/28 07:04:45;;;;;;;;;;;;;;;24.47;39.14;99975.28;5397996;32;34873;-85
2023/07/28 07:07:46;;;;;;;;;;;;;;;24.41;39.53;99957.13;5396446;32;34410;-84
2023/07/28 07:10:52;;;;;;;;;;;;;;;25.30;38.41;99959.31;5397464;32;34606;-86
2023/07/28 07:13:54;;;;;;;;;;;;;;;26.75;35.10;99949.66;5394890;32;34235;-86
2023/07/28 07:16:56;;;;;;;;;;;;;;;26.16;35.97;99964.28;5401713;32;34914;-85
2023/07/28 07:19:58;;;;;;;;;;;;;;;25.10;38.01;99964.16;5396555;32;35067;-85
2023/07/28 07:23:00;;;;;;;;;;;;;;;25.57;38.45;99957.38;5392144;32;35441;-86
2023/07/28 07:26:05;;;;;;;;;;;;;;;26.07;36.19;99946.41;5396716;32;34692;-86
2023/07/28 07:29:08;;;;;;;;;;;;;;;25.56;37.34;99951.12;5385228;32;35010;-87
2023/07/28 07:32:11;;;;;;;;;;;;;;;25.14;38.03;99961.16;5399341;32;35025;-87
2023/07/28 07:35:13;;;;;;;;;;;;;;;24.32;40.01;99949.97;5400602;32;35495;-86
2023/07/28 07:38:15;;;;;;;;;;;;;;;24.72;39.04;99941.28;5407558;32;34479;-86
2023/07/28 07:41:19;;;;;;;;;;;;;;;24.32;39.26;99947.28;5397411;32;35206;-86
2023/07/28 07:44:22;;;;;;;;;;;;;;;24.81;38.74;99940.34;5400126;32;34590;-86
2023/07/28 07:47:24;;;;;;;;;;;;;;;25.05;38.20;99934.25;5396702;32;34603;-86
2023/07/28 07:50:26;;;;;;;;;;;;;;;25.38;36.93;99937.00;5397825;32;33616;-89
2023/07/28 07:53:28;;;;;;;;;;;;;;;25.37;36.79;99936.16;5398380;32;34548;-86
2023/07/28 07:56:30;;;;;;;;;;;;;;;25.35;36.71;99940.00;5389952;32;35940;-86
2023/07/28 07:59:32;;;;;;;;;;;;;;;24.94;37.40;99934.50;5397330;32;34228;-85
2023/07/28 08:02:37;;;;;;;;;;;;;;;24.65;38.64;99934.03;5397367;32;34597;-86
2023/07/28 08:05:39;;;;;;;;;;;;;;;25.46;36.93;99937.00;5396858;32;34919;-86
2023/07/28 08:08:41;;;;;;;;;;;;;;;25.60;37.08;99930.09;5399530;32;35484;-85
2023/07/28 08:11:45;;;;;;;;;;;;;;;24.99;37.99;99934.00;5390479;32;34641;-86
2023/07/28 08:14:49;;;;;;;;;;;;;;;25.63;36.40;99945.91;5398708;32;35839;-86
2023/07/28 08:17:52;;;;;;;;;;;;;;;25.64;36.75;99944.91;5396993;32;35225;-86
2023/07/28 08:20:54;;;;;;;;;;;;;;;25.31;37.09;99947.56;5392201;32;34639;-86
2023/07/28 08:23:56;;;;;;;;;;;;;;;25.06;37.96;99935.09;5400239;32;35182;-86
2023/07/28 08:26:58;;;;;;;;;;;;;;;24.89;38.27;99941.38;5391986;32;35315;-85
2023/07/28 08:30:00;;;;;;;;;;;;;;;24.62;38.59;99943.28;5407036;32;35164;-85
2023/07/28 08:33:03;;;;;;;;;;;;;;;24.43;39.51;99938.16;5387106;32;33698;-86
2023/07/28 08:36:05;;;;;;;;;;;;;;;25.02;38.54;99934.53;5393397;32;36142;-84
2023/07/28 08:39:09;;;;;;;;;;;;;;;25.28;37.69;99947.87;5395290;32;34350;-84
2023/07/28 08:42:11;;;;;;;;;;;;;;;25.21;38.19;99943.34;5391739;32;35234;-86
2023/07/28 08:45:13;;;;;;;;;;;;;;;26.20;36.45;99930.56;5399575;32;34635;-86
2023/07/28 08:48:15;;;;;;;;;;;;;;;26.29;36.31;99923.34;5391328;32;35898;-86
2023/07/28 08:51:17;;;;;;;;;;;;;;;27.85;33.88;99913.38;5395172;32;34718;-86
2023/07/28 08:54:20;;;;;;;;;;;;;;;29.05;31.47;99911.38;5401606;32;34346;-87
2023/07/28 08:57:23;;;;;;;;;;;;;;;29.40;30.37;99898.81;5401125;32;34843;-87
2023/07/28 09:00:25;;;;;;;;;;;;;;;29.40;30.03;99895.28;5391041;32;34787;-87
2023/07/28 09:03:27;;;;;;;;;;;;;;;29.47;29.76;99896.16;5393195;32;35263;-87
2023/07/28 09:06:31;;;;;;;;;;;;;;;29.50;29.55;99887.66;5391006;32;34893;-87
2023/07/28 09:09:33;;;;;;;;;;;;;;;31.27;27.13;99882.66;5403875;32;34335;-86
2023/07/28 09:12:36;;;;;;;;;;;;;;;31.30;27.17;99874.13;5395194;32;35101;-88
2023/07/28 09:15:39;;;;;;;;;;;;;;;31.23;27.57;99875.94;5391504;32;34756;-87
2023/07/28 09:18:41;;;;;;;;;;;;;;;32.26;25.70;99870.91;5399322;32;34684;-87
2023/07/28 09:21:45;;;;;;;;;;;;;;;32.12;25.97;99869.28;5391710;32;34312;-90
2023/07/28 09:24:48;;;;;;;;;;;;;;;32.69;25.50;99867.66;5402173;32;35209;-86
2023/07/28 09:27:50;;;;;;;;;;;;;;;33.69;24.33;99871.47;5392497;32;35401;-86
2023/07/28 09:30:54;;;;;;;;;;;;;;;34.50;23.23;99862.25;5396078;32;34972;-85
2023/07/28 09:33:56;;;;;;;;;;;;;;;33.61;24.26;99878.00;5396116;32;35086;-87
2023/07/28 09:36:58;;;;;;;;;;;;;;;31.78;26.55;99882.06;5389719;32;36236;-86
2023/07/28 09:40:00;;;;;;;;;;;;;;;30.94;28.17;99882.56;5387596;32;34572;-85
2023/07/28 09:43:02;;;;;;;;;;;;;;;31.12;28.27;99871.13;5389957;32;35063;-86
2023/07/28 09:46:06;;;;;;;;;;;;;;;31.55;27.94;99871.59;5395549;32;34917;-85
2023/07/28 09:49:10;;;;;;;;;;;;;;;31.97;27.02;99870.38;5390405;32;34758;-86
2023/07/28 09:52:12;;;;;;;;;;;;;;;31.76;27.00;99874.13;5385680;32;35245;-85
2023/07/28 09:55:16;;;;;;;;;;;;;;;30.73;28.82;99887.09;5385680;32;34769;-86
2023/07/28 09:58:24;;;;;;;;;;;;;;;31.02;28.50;99868.78;5385004;32;34641;-87
2023/07/28 10:01:26;;;;;;;;;;;;;;;30.45;29.38;99861.88;5395863;32;35456;-87
2023/07/28 10:04:29;;;;;;;;;;;;;;;29.29;31.40;99866.00;5396480;32;34495;-89
2023/07/28 10:07:31;;;;;;;;;;;;;;;29.42;31.31;99861.53;5392015;32;37203;-86
2023/07/28 10:10:33;;;;;;;;;;;;;;;30.44;29.96;99857.50;5387984;32;34958;-86
2023/07/28 10:13:42;;;;;;;;;;;;;;;30.74;29.56;99855.38;5390761;32;37119;-86
2023/07/28 10:16:44;;;;;;;;;;;;;;;30.60;29.83;99846.31;5395272;32;35146;-85
2023/07/28 10:19:46;;;;;;;;;;;;;;;30.23;30.49;99846.78;5401829;32;35017;-85
2023/07/28 10:22:48;;;;;;;;;;;;;;;31.12;29.31;99858.38;5391884;32;35484;-84
2023/07/28 10:25:55;;;;;;;;;;;;;;;32.06;28.64;99835.63;5394714;32;34837;-86
2023/07/28 10:29:07;;;;;;;;;;;;;;;33.12;26.67;99838.75;5395379;32;34231;-85
2023/07/28 10:32:09;;;;;;;;;;;;;;;34.42;25.10;99835.28;5392648;32;35241;-85
2023/07/28 10:35:11;;;;;;;;;;;;;;;32.91;26.75;99852.69;5404174;32;34442;-86
2023/07/28 10:38:34;;;;;;;;;;;;;;;32.93;26.88;99845.16;5398175;32;35165;-85
2023/07/28 10:41:36;;;;;;;;;;;;;;;33.37;26.18;99836.06;5403313;32;34319;-87
2023/07/28 10:44:38;;;;;;;;;;;;;;;33.45;25.48;99842.31;5399402;32;35707;-86
2023/07/28 10:47:43;;;;;;;;;;;;;;;33.74;25.60;99838.06;5394954;32;34983;-84
2023/07/28 10:50:45;;;;;;;;;;;;;;;32.98;26.67;99837.19;5386696;32;35496;-84
2023/07/28 10:53:49;;;;;;;;;;;;;;;34.36;25.15;99834.28;5398264;32;34125;-85
2023/07/28 10:56:52;;;;;;;;;;;;;;;33.66;26.05;99839.19;5355270;32;883929;-86
2023/07/28 10:59:54;;;;;;;;;;;;;;;35.26;24.57;99833.50;5392261;32;34394;-84
2023/07/28 11:02:56;;;;;;;;;;;;;;;36.44;22.09;99826.97;5388770;32;34398;-86
2023/07/28 11:05:58;;;;;;;;;;;;;;;35.28;23.51;99854.03;5388753;32;36230;-86
2023/07/28 11:09:00;;;;;;;;;;;;;;;33.37;26.27;99841.50;5392699;32;34626;-86
2023/07/28 11:12:03;;;;;;;;;;;;;;;35.16;24.09;99838.69;5387929;32;36495;-86
2023/07/28 11:15:06;;;;;;;;;;;;;;;34.82;24.74;99827.41;5394891;32;34639;-86
2023/07/28 11:18:09;;;;;;;;;;;;;;;36.23;22.96;99825.69;5391299;32;34032;-86
2023/07/28 11:21:12;;;;;;;;;;;;;;;35.22;24.02;99822.19;5390874;32;35656;-84
2023/07/28 11:24:17;;;;;;;;;;;;;;;34.78;24.82;99823.50;5392503;32;35632;-85
2023/07/28 11:27:21;;;;;;;;;;;;;;;34.59;24.64;99840.97;5390433;32;35474;-85
2023/07/28 11:30:23;;;;;;;;;;;;;;;35.12;23.98;99830.16;5394035;32;34147;-86
2023/07/28 11:33:26;;;;;;;;;;;;;;;34.77;24.76;99830.00;5389667;32;35255;-85
2023/07/28 11:36:28;;;;;;;;;;;;;;;34.45;24.70;99827.47;5383238;32;34656;-86
2023/07/28 11:39:31;;;;;;;;;;;;;;;34.94;23.91;99824.75;5387869;32;34806;-86
2023/07/28 11:42:53;;;;;;;;;;;;;;;34.34;24.75;99824.66;5372070;32;34804;-84
2023/07/28 11:45:55;;;;;;;;;;;;;;;34.94;24.18;99825.59;5385406;32;34394;-84
2023/07/28 11:49:26;;;;;;;;;;;;;;;35.18;24.12;99820.19;5387159;32;33865;-85
2023/07/28 11:52:35;;;;;;;;;;;;;;;36.26;22.99;99813.44;5384330;32;36011;-86
2023/07/28 11:55:38;;;;;;;;;;;;;;;34.30;25.39;99813.38;5389933;32;35398;-85
2023/07/28 11:58:40;;;;;;;;;;;;;;;36.80;21.82;99805.78;5381283;32;34714;-84
2023/07/28 12:01:58;;;;;;;;;;;;;;;37.54;20.41;99805.72;5387701;32;34586;-86
2023/07/28 12:05:11;;;;;;;;;;;;;;;37.69;20.43;99803.22;5377834;32;35535;-86
2023/07/28 12:08:13;;;;;;;;;;;;;;;38.55;19.33;99791.75;5387322;32;35086;-86
2023/07/28 12:11:17;;;;;;;;;;;;;;;39.45;18.55;99788.22;5385424;32;35613;-84
2023/07/28 12:14:39;;;;;;;;;;;;;;;39.20;18.38;99797.09;5388185;32;35371;-88
2023/07/28 12:18:04;;;;;;;;;;;;;;;40.19;17.56;99786.47;5390946;32;35456;-87
2023/07/28 12:21:09;;;;;;;;;;;;;;;39.45;18.34;99784.62;5382165;32;34510;-86
2023/07/28 12:24:11;;;;;;;;;;;;;;;34.91;23.27;99790.53;5393668;32;34834;-86
2023/07/28 12:27:13;;;;;;;;;;;;;;;34.32;24.43;99786.69;5390776;32;34980;-87
2023/07/28 12:30:16;;;;;;;;;;;;;;;36.35;22.53;99779.16;5389544;32;34777;-87
2023/07/28 12:33:19;;;;;;;;;;;;;;;35.50;23.56;99785.22;5400827;32;35543;-85
2023/07/28 12:36:23;;;;;;;;;;;;;;;35.46;23.31;99779.37;5385927;32;34667;-86
2023/07/28 12:39:45;;;;;;;;;;;;;;;34.13;25.00;99774.13;5394423;32;36054;-86
2023/07/28 12:42:50;;;;;;;;;;;;;;;32.57;27.05;99772.28;5386573;32;35520;-85
2023/07/28 12:45:56;;;;;;;;;;;;;;;32.90;27.00;99769.38;5381800;32;35181;-84
2023/07/28 12:49:01;;;;;;;;;;;;;;;32.32;27.70;99767.56;5388540;32;34283;-86
2023/07/28 12:52:05;;;;;;;;;;;;;;;33.31;26.86;99773.47;5387737;32;35613;-85
2023/07/28 12:55:07;;;;;;;;;;;;;;;33.46;26.76;99773.16;5383615;32;34731;-85
2023/07/28 12:58:12;;;;;;;;;;;;;;;33.22;26.58;99772.91;5388724;32;34956;-86
2023/07/28 13:01:17;;;;;;;;;;;;;;;32.85;27.18;99778.19;5393957;32;34950;-87
2023/07/28 13:04:19;;;;;;;;;;;;;;;32.05;28.57;99768.72;5390923;32;34807;-87
2023/07/28 13:07:21;;;;;;;;;;;;;;;31.84;28.32;99763.59;5386986;32;35335;-86
2023/07/28 13:10:26;;;;;;;;;;;;;;;32.49;25.98;99776.09;5394742;32;36569;-88
2023/07/28 13:13:32;;;;;;;;;;;;;;;32.63;25.82;99768.69;5386564;32;35544;-86
2023/07/28 13:16:36;;;;;;;;;;;;;;;31.74;27.44;99762.09;5392738;32;35873;-87
2023/07/28 13:19:38;;;;;;;;;;;;;;;32.79;26.10;99762.75;5389698;32;35011;-86
2023/07/28 13:22:40;;;;;;;;;;;;;;;32.06;27.17;99762.25;5389583;32;34329;-88
2023/07/28 13:25:42;;;;;;;;;;;;;;;32.21;27.27;99756.56;5386827;32;35007;-88
2023/07/28 13:28:46;;;;;;;;;;;;;;;33.36;25.63;99763.59;5387267;32;34199;-88
2023/07/28 13:31:49;;;;;;;;;;;;;;;32.16;26.87;99775.41;5391499;32;34774;-87
2023/07/28 13:34:52;;;;;;;;;;;;;;;33.37;24.94;99764.41;5405376;32;34953;-88
2023/07/28 13:37:55;;;;;;;;;;;;;;;32.51;26.44;99770.44;5392700;32;35534;-87
2023/07/28 13:40:56;;;;;;;;;;;;;;;32.94;26.16;99776.06;5392849;32;34482;-87
2023/07/28 13:43:58;;;;;;;;;;;;;;;31.92;27.60;99766.06;5402616;32;35050;-88
2023/07/28 13:47:05;;;;;;;;;;;;;;;31.39;29.01;99766.97;5393516;32;34305;-87
2023/07/28 13:50:07;;;;;;;;;;;;;;;30.93;29.67;99777.78;5393608;32;34692;-86
2023/07/28 13:53:09;;;;;;;;;;;;;;;31.92;28.12;99761.47;5391890;32;34657;-88
2023/07/28 13:56:14;;;;;;;;;;;;;;;31.42;29.41;99771.13;5387623;32;35887;-86
2023/07/28 13:59:19;;;;;;;;;;;;;;;31.89;28.21;99763.78;5398739;32;36294;-87
2023/07/28 14:02:21;;;;;;;;;;;;;;;31.35;29.39;99765.72;5392757;32;32781;-88
2023/07/28 14:05:24;;;;;;;;;;;;;;;30.78;29.82;99774.41;5407626;32;35168;-89
2023/07/28 14:08:25;;;;;;;;;;;;;;;31.23;29.49;99765.50;5385310;32;35899;-87
2023/07/28 14:11:28;;;;;;;;;;;;;;;31.70;29.26;99762.75;5382337;32;35097;-87
2023/07/28 14:14:30;;;;;;;;;;;;;;;31.26;30.25;99762.38;5391941;32;35033;-87
2023/07/28 14:17:32;;;;;;;;;;;;;;;31.24;30.40;99764.47;5383565;32;34341;-86
2023/07/28 14:20:34;;;;;;;;;;;;;;;31.28;30.37;99764.87;5392875;32;35145;-87
2023/07/28 14:23:36;;;;;;;;;;;;;;;31.17;30.32;99758.19;5379109;32;34784;-88
2023/07/28 14:26:38;;;;;;;;;;;;;;;31.02;30.26;99760.25;5387174;32;35629;-88
2023/07/28 14:29:40;;;;;;;;;;;;;;;31.48;28.67;99746.69;5388377;32;34340;-87
2023/07/28 14:32:42;;;;;;;;;;;;;;;30.88;30.06;99753.16;5387052;32;34189;-88
2023/07/28 14:35:45;;;;;;;;;;;;;;;31.74;28.87;99743.09;5391383;32;35578;-89
2023/07/28 14:38:47;;;;;;;;;;;;;;;31.14;30.46;99739.59;5390173;32;33123;-90
2023/07/28 14:41:49;;;;;;;;;;;;;;;31.30;30.81;99734.81;5388397;32;34345;-92
2023/07/28 14:44:51;;;;;;;;;;;;;;;31.19;30.44;99728.94;5393149;32;34678;-89
2023/07/28 14:47:53;;;;;;;;;;;;;;;30.99;30.88;99730.84;5398549;32;34789;-88
2023/07/28 14:50:55;;;;;;;;;;;;;;;31.73;29.67;99724.28;5394137;32;34263;-87
2023/07/28 14:53:57;;;;;;;;;;;;;;;31.27;30.66;99723.31;5394805;32;35053;-88
2023/07/28 14:56:59;;;;;;;;;;;;;;;31.33;30.78;99715.41;5395044;32;34529;-88
2023/07/28 15:00:02;;;;;;;;;;;;;;;31.18;30.90;99711.00;5382467;32;34902;-88
2023/07/28 15:03:04;;;;;;;;;;;;;;;31.46;30.68;99707.22;5390894;32;35425;-88
2023/07/28 15:06:06;;;;;;;;;;;;;;;31.23;30.32;99705.78;5385776;32;34900;-87
2023/07/28 15:09:08;;;;;;;;;;;;;;;30.88;29.84;99705.16;5387042;32;34746;-86
2023/07/28 15:12:10;;;;;;;;;;;;;;;30.51;30.83;99695.69;5389075;32;35006;-88
2023/07/28 15:15:12;;;;;;;;;;;;;;;30.72;30.52;99700.12;5384987;32;34309;-88
2023/07/28 15:18:14;;;;;;;;;;;;;;;30.41;30.91;99692.56;5387270;32;35358;-88
2023/07/28 15:21:16;;;;;;;;;;;;;;;30.33;31.49;99690.84;5373996;32;35552;-87
2023/07/28 15:24:19;;;;;;;;;;;;;;;30.35;31.82;99698.78;5391325;32;35841;-86
2023/07/28 15:27:21;;;;;;;;;;;;;;;30.47;31.81;99698.00;5383370;32;34381;-87
2023/07/28 15:30:23;;;;;;;;;;;;;;;31.00;30.69;99697.22;5386440;32;35683;-87
2023/07/28 15:33:28;;;;;;;;;;;;;;;30.83;30.70;99696.78;5387577;32;34774;-88
2023/07/28 15:36:30;;;;;;;;;;;;;;;31.05;30.32;99699.31;5382185;32;37293;-87
2023/07/28 15:39:33;;;;;;;;;;;;;;;30.44;31.06;99711.94;5391905;32;34501;-87
2023/07/28 15:42:35;;;;;;;;;;;;;;;30.76;30.83;99714.94;5381391;32;35348;-87
2023/07/28 15:45:37;;;;;;;;;;;;;;;31.14;29.88;99706.19;5389344;32;34291;-87
2023/07/28 15:48:39;;;;;;;;;;;;;;;31.42;29.23;99703.25;5378732;32;35198;-87
2023/07/28 15:51:41;;;;;;;;;;;;;;;31.45;29.12;99703.69;5389132;32;34952;-88